createdAt,value
2022-11-24T00:00:14.600Z,1.20
2022-11-24T00:02:43.024Z,1.20
2022-11-24T00:05:11.442Z,1.20
2022-11-24T00:07:39.883Z,1.20
2022-11-24T00:10:08.919Z,1.20
2022-11-24T00:12:37.332Z,1.30
2022-11-24T00:15:06.142Z,1.30
2022-11-24T00:17:35.885Z,1.20
2022-11-24T00:20:04.620Z,1.30
2022-11-24T00:22:32.967Z,1.20
2022-11-24T00:25:01.328Z,1.20
2022-11-24T00:27:29.678Z,1.20
2022-11-24T00:29:59.688Z,1.20
2022-11-24T00:32:29.580Z,1.30
2022-11-24T00:34:59.319Z,1.30
2022-11-24T00:37:27.742Z,1.30
2022-11-24T00:39:56.081Z,1.30
2022-11-24T00:42:24.437Z,1.30
2022-11-24T00:44:52.806Z,1.20
2022-11-24T00:47:21.234Z,1.20
2022-11-24T00:49:49.631Z,1.20
2022-11-24T00:52:19.373Z,1.20
2022-11-24T00:54:47.749Z,1.30
2022-11-24T00:57:16.127Z,1.40
2022-11-24T00:59:44.506Z,1.40
2022-11-24T01:02:12.903Z,1.40
2022-11-24T01:04:41.292Z,1.40
2022-11-24T01:07:09.701Z,1.40
2022-11-24T01:09:39.499Z,1.40
2022-11-24T01:12:09.113Z,1.40
2022-11-24T01:14:37.546Z,1.40
2022-11-24T01:17:05.960Z,1.40
2022-11-24T01:19:34.593Z,1.40
2022-11-24T01:22:02.951Z,1.40
2022-11-24T01:24:31.447Z,1.40
2022-11-24T01:27:01.475Z,1.40
2022-11-24T01:29:29.996Z,1.40
2022-11-24T01:31:58.371Z,1.40
2022-11-24T01:34:26.757Z,1.40
2022-11-24T01:36:55.178Z,1.40
2022-11-24T01:39:23.567Z,1.40
2022-11-24T01:41:52.947Z,1.40
2022-11-24T01:44:24.931Z,1.40
2022-11-24T01:46:58.348Z,1.30
2022-11-24T01:49:32.721Z,1.40
2022-11-24T01:52:06.537Z,1.40
2022-11-24T01:54:40.099Z,1.40
2022-11-24T01:57:12.894Z,1.40
2022-11-24T01:59:42.828Z,1.40
2022-11-24T02:02:12.312Z,1.30
2022-11-24T02:04:41.854Z,1.40
2022-11-24T02:07:10.635Z,1.30
2022-11-24T02:09:44.779Z,1.40
2022-11-24T02:12:13.521Z,1.30
2022-11-24T02:14:44.777Z,1.40
2022-11-24T02:17:13.525Z,1.30
2022-11-24T02:19:53.157Z,1.40
2022-11-24T02:22:29.316Z,1.40
2022-11-24T02:25:04.697Z,1.30
2022-11-24T02:27:34.546Z,1.40
2022-11-24T02:30:02.994Z,1.30
2022-11-24T02:32:34.549Z,1.30
2022-11-24T02:35:03.289Z,1.40
2022-11-24T02:37:31.776Z,1.30
2022-11-24T02:40:00.181Z,1.20
2022-11-24T02:42:32.269Z,1.20
2022-11-24T02:45:02.765Z,1.30
2022-11-24T02:47:31.137Z,1.30
2022-11-24T02:49:59.493Z,1.30
2022-11-24T02:52:27.833Z,1.30
2022-11-24T02:54:56.214Z,1.30
2022-11-24T02:57:24.632Z,1.30
2022-11-24T02:59:52.983Z,1.20
2022-11-24T03:02:22.924Z,1.20
2022-11-24T03:04:51.382Z,1.20
2022-11-24T03:07:19.989Z,1.20
2022-11-24T03:09:48.428Z,1.30
2022-11-24T03:12:16.805Z,1.30
2022-11-24T03:14:45.153Z,1.30
2022-11-24T03:17:13.513Z,1.40
2022-11-24T03:19:43.258Z,1.40
2022-11-24T03:22:13.106Z,1.40
2022-11-24T03:24:41.471Z,1.40
2022-11-24T03:27:09.863Z,1.40
2022-11-24T03:29:38.335Z,1.40
2022-11-24T03:32:06.996Z,1.40
2022-11-24T03:34:35.517Z,1.40
2022-11-24T03:37:05.539Z,1.30
2022-11-24T03:39:33.882Z,1.30
2022-11-24T03:42:02.326Z,1.20
2022-11-24T03:44:30.762Z,1.20
2022-11-24T03:46:59.190Z,1.30
2022-11-24T03:49:27.639Z,1.30
2022-11-24T03:51:56.005Z,1.30
2022-11-24T03:54:25.758Z,1.30
2022-11-24T03:56:54.129Z,1.40
2022-11-24T03:59:22.539Z,1.40
2022-11-24T04:01:50.936Z,1.30
2022-11-24T04:04:19.373Z,1.20
2022-11-24T04:06:47.763Z,1.20
2022-11-24T04:09:16.353Z,1.30
2022-11-24T04:12:03.650Z,1.30
2022-11-24T04:14:32.318Z,1.30
2022-11-24T04:17:00.965Z,1.30
2022-11-24T04:19:29.354Z,1.30
2022-11-24T04:21:57.728Z,1.30
2022-11-24T04:24:26.135Z,1.30
2022-11-24T04:26:55.888Z,1.40
2022-11-24T04:29:24.281Z,1.40
2022-11-24T04:31:52.653Z,1.40
2022-11-24T04:34:21.015Z,1.40
2022-11-24T04:36:49.403Z,1.30
2022-11-24T04:39:25.984Z,1.30
2022-11-24T04:41:57.745Z,1.30
2022-11-24T04:44:26.325Z,1.30
2022-11-24T04:46:54.796Z,1.30
2022-11-24T04:49:23.197Z,1.40
2022-11-24T04:51:51.581Z,1.40
2022-11-24T04:54:19.989Z,1.40
2022-11-24T04:56:52.540Z,1.30
2022-11-24T04:59:22.332Z,1.40
2022-11-24T05:01:50.778Z,1.40
2022-11-24T05:04:20.574Z,1.40
2022-11-24T05:06:49.509Z,1.40
2022-11-24T05:09:18.985Z,1.40
2022-11-24T05:11:47.373Z,1.40
2022-11-24T05:14:15.656Z,1.40
2022-11-24T05:16:45.350Z,1.40
2022-11-24T05:19:14.255Z,1.40
2022-11-24T05:21:42.537Z,1.40
2022-11-24T05:24:12.066Z,1.50
2022-11-24T05:26:40.359Z,1.50
2022-11-24T05:29:08.658Z,1.50
2022-11-24T05:31:37.175Z,1.50
2022-11-24T05:34:06.934Z,1.50
2022-11-24T05:36:52.672Z,1.50
2022-11-24T05:39:21.104Z,1.50
2022-11-24T05:41:49.433Z,1.50
2022-11-24T05:44:17.714Z,1.50
2022-11-24T05:46:46.091Z,1.50
2022-11-24T05:49:15.853Z,1.50
2022-11-24T05:51:44.151Z,1.40
2022-11-24T05:54:12.186Z,1.40
2022-11-24T05:56:40.121Z,1.40
2022-11-24T05:59:09.959Z,1.40
2022-11-24T06:01:38.261Z,1.40
2022-11-24T06:04:06.263Z,1.40
2022-11-24T06:06:35.518Z,1.40
2022-11-24T06:09:03.402Z,1.40
2022-11-24T06:11:31.326Z,1.40
2022-11-24T06:13:59.360Z,1.40
2022-11-24T06:16:27.511Z,1.40
2022-11-24T06:18:55.628Z,1.40
2022-11-24T06:21:23.578Z,1.40
2022-11-24T06:23:52.789Z,1.40
2022-11-24T06:26:20.669Z,1.40
2022-11-24T06:28:48.567Z,1.40
2022-11-24T06:31:16.546Z,1.40
2022-11-24T06:33:44.431Z,1.40
2022-11-24T06:36:15.198Z,1.40
2022-11-24T06:38:43.121Z,1.40
2022-11-24T06:41:14.507Z,1.40
2022-11-24T06:43:42.803Z,1.40
2022-11-24T06:46:11.266Z,1.40
2022-11-24T06:48:39.585Z,1.40
2022-11-24T06:51:09.792Z,1.40
2022-11-24T06:53:38.974Z,1.40
2022-11-24T06:56:15.225Z,1.40
2022-11-24T06:58:47.202Z,1.40
2022-11-24T07:01:16.536Z,1.40
2022-11-24T07:03:44.681Z,1.40
2022-11-24T07:06:12.570Z,1.40
2022-11-24T07:08:40.469Z,1.40
2022-11-24T07:11:10.017Z,1.40
2022-11-24T07:13:37.952Z,1.40
2022-11-24T07:16:14.411Z,1.50
2022-11-24T07:18:42.452Z,1.50
2022-11-24T07:21:10.720Z,1.50
2022-11-24T07:23:39.050Z,1.50
2022-11-24T07:26:07.888Z,1.50
2022-11-24T07:28:36.782Z,1.50
2022-11-24T07:31:07.624Z,1.50
2022-11-24T07:33:37.360Z,1.50
2022-11-24T07:36:07.172Z,1.50
2022-11-24T07:38:36.212Z,1.50
2022-11-24T07:41:05.168Z,1.50
2022-11-24T07:43:34.216Z,1.50
2022-11-24T07:46:02.672Z,1.60
2022-11-24T07:48:30.656Z,1.60
2022-11-24T07:51:01.709Z,1.60
2022-11-24T07:53:30.120Z,1.50
2022-11-24T07:56:00.585Z,1.50
2022-11-24T07:58:32.703Z,1.50
2022-11-24T08:01:01.287Z,1.60
2022-11-24T08:03:29.265Z,1.60
2022-11-24T08:06:23.058Z,1.50
2022-11-24T08:08:47.689Z,1.50
2022-11-24T08:11:18.008Z,1.60
2022-11-24T08:13:45.948Z,1.60
2022-11-24T08:16:16.022Z,1.60
2022-11-24T08:18:44.657Z,1.60
2022-11-24T08:21:14.265Z,1.60
2022-11-24T08:23:42.231Z,1.60
2022-11-24T08:26:16.108Z,1.60
2022-11-24T08:28:44.188Z,1.60
2022-11-24T08:31:13.759Z,1.60
2022-11-24T08:33:41.872Z,1.60
2022-11-24T08:36:13.079Z,1.60
2022-11-24T08:38:41.463Z,1.60
2022-11-24T08:41:12.735Z,1.60
2022-11-24T08:43:40.979Z,1.60
2022-11-24T08:46:10.734Z,1.60
2022-11-24T08:48:39.062Z,1.60
2022-11-24T08:51:11.841Z,1.60
2022-11-24T08:53:40.211Z,1.60
2022-11-24T08:56:09.540Z,1.60
2022-11-24T08:58:39.766Z,1.70
2022-11-24T09:01:09.353Z,1.70
2022-11-24T09:03:38.423Z,1.70
2022-11-24T09:06:06.799Z,1.70
2022-11-24T09:08:35.050Z,1.70
2022-11-24T09:11:04.402Z,1.80
2022-11-24T09:13:32.510Z,1.70
2022-11-24T09:16:05.864Z,1.70
2022-11-24T09:18:34.171Z,1.70
2022-11-24T09:21:09.038Z,1.70
2022-11-24T09:23:37.183Z,1.70
2022-11-24T09:26:06.611Z,1.60
2022-11-24T09:28:34.795Z,1.50
2022-11-24T09:31:05.837Z,1.50
2022-11-24T09:33:34.678Z,1.50
2022-11-24T09:36:03.481Z,1.50
2022-11-24T09:38:31.430Z,1.60
2022-11-24T09:41:22.174Z,1.60
2022-11-24T09:44:00.038Z,1.60
2022-11-24T09:46:33.464Z,1.70
2022-11-24T09:49:05.127Z,1.70
2022-11-24T09:51:34.751Z,1.80
2022-11-24T09:54:07.190Z,1.80
2022-11-24T09:56:36.510Z,1.80
2022-11-24T09:59:10.753Z,1.80
2022-11-24T10:01:43.668Z,1.90
2022-11-24T10:04:17.398Z,1.90
2022-11-24T10:06:49.165Z,1.90
2022-11-24T10:09:44.079Z,1.90
2022-11-24T10:12:23.219Z,1.90
2022-11-24T10:15:22.474Z,1.90
2022-11-24T10:18:24.873Z,1.90
2022-11-24T10:21:03.075Z,2.00
2022-11-24T10:23:55.397Z,2.00
2022-11-24T10:26:34.068Z,2.00
2022-11-24T10:29:09.853Z,2.00
2022-11-24T10:31:41.514Z,1.90
2022-11-24T10:34:26.229Z,2.00
2022-11-24T10:36:59.861Z,2.00
2022-11-24T10:39:35.239Z,1.90
2022-11-24T10:42:11.539Z,2.00
2022-11-24T10:44:40.210Z,2.00
2022-11-24T10:47:19.353Z,2.00
2022-11-24T10:49:56.484Z,2.00
2022-11-24T10:52:27.237Z,2.00
2022-11-24T10:54:57.532Z,2.00
2022-11-24T10:57:30.559Z,2.00
2022-11-24T10:59:58.541Z,2.00
2022-11-24T11:02:33.196Z,2.00
2022-11-24T11:05:28.788Z,2.00
2022-11-24T11:08:22.333Z,2.00
2022-11-24T11:10:52.389Z,2.00
2022-11-24T11:13:28.957Z,2.00
2022-11-24T11:15:57.631Z,2.00
2022-11-24T11:18:31.956Z,2.00
2022-11-24T11:21:03.190Z,2.10
2022-11-24T11:23:34.760Z,2.10
2022-11-24T11:26:20.653Z,2.10
2022-11-24T11:31:15.449Z,2.10
2022-11-24T11:34:52.019Z,2.10
2022-11-24T11:37:22.803Z,2.10
2022-11-24T11:39:52.423Z,2.00
2022-11-24T11:43:00.196Z,2.10
2022-11-24T11:45:17.429Z,2.10
2022-11-24T11:47:51.047Z,2.10
2022-11-24T11:50:25.328Z,2.10
2022-11-24T11:53:06.225Z,2.10
2022-11-24T11:55:54.384Z,2.10
2022-11-24T11:58:36.060Z,2.10
2022-11-24T12:01:12.769Z,2.00
2022-11-24T12:03:58.419Z,2.00
2022-11-24T12:06:44.783Z,2.00
2022-11-24T12:09:26.076Z,2.10
2022-11-24T12:12:10.891Z,2.10
2022-11-24T12:14:53.076Z,2.10
2022-11-24T12:17:30.469Z,2.10
2022-11-24T12:20:15.014Z,2.10
2022-11-24T12:22:49.107Z,2.00
2022-11-24T12:25:27.092Z,2.10
2022-11-24T12:28:06.905Z,2.10
2022-11-24T12:30:43.548Z,2.10
2022-11-24T12:33:39.835Z,2.10
2022-11-24T12:36:17.498Z,2.00
2022-11-24T12:38:55.599Z,2.00
2022-11-24T12:41:43.269Z,1.90
2022-11-24T12:44:28.649Z,1.90
2022-11-24T12:47:04.549Z,1.80
2022-11-24T12:49:40.082Z,1.80
2022-11-24T12:52:23.622Z,1.90
2022-11-24T12:54:51.553Z,2.00
2022-11-24T12:57:28.616Z,2.00
2022-11-24T13:00:05.298Z,2.00
2022-11-24T13:02:48.281Z,1.90
2022-11-24T13:05:25.614Z,1.90
2022-11-24T13:07:58.516Z,2.00
2022-11-24T13:13:24.790Z,2.00
2022-11-24T13:19:10.065Z,2.00
2022-11-24T13:22:03.927Z,2.00
2022-11-24T13:24:33.769Z,2.00
2022-11-24T13:27:28.599Z,1.90
2022-11-24T13:29:57.886Z,1.90
2022-11-24T13:32:47.178Z,1.80
2022-11-24T13:35:16.840Z,1.80
2022-11-24T13:37:51.624Z,1.90
2022-11-24T13:40:54.166Z,1.90
2022-11-24T13:43:30.882Z,2.00
2022-11-24T13:46:00.154Z,2.00
2022-11-24T13:48:53.621Z,2.00
2022-11-24T13:51:25.764Z,1.90
2022-11-24T13:53:56.543Z,2.00
2022-11-24T13:56:33.386Z,2.00
2022-11-24T13:59:04.278Z,2.00
2022-11-24T14:01:36.522Z,1.90
2022-11-24T14:04:34.987Z,1.80
2022-11-24T14:07:08.790Z,1.80
2022-11-24T14:09:43.438Z,1.80
2022-11-24T14:12:17.219Z,1.80
2022-11-24T14:14:46.690Z,1.90
2022-11-24T14:17:22.298Z,1.90
2022-11-24T14:19:52.049Z,1.90
2022-11-24T14:22:22.489Z,1.90
2022-11-24T14:24:54.863Z,1.90
2022-11-24T14:27:29.161Z,1.90
2022-11-24T14:29:59.205Z,1.90
2022-11-24T14:32:29.119Z,1.90
2022-11-24T14:34:57.600Z,1.90
2022-11-24T14:37:25.621Z,1.90
2022-11-24T14:39:54.379Z,1.80
2022-11-24T14:42:24.154Z,1.80
2022-11-24T14:44:55.637Z,1.80
2022-11-24T14:47:31.394Z,1.80
2022-11-24T14:50:09.222Z,1.80
2022-11-24T14:52:37.563Z,1.80
2022-11-24T14:55:21.834Z,1.80
2022-11-24T14:57:51.052Z,1.80
2022-11-24T15:00:21.100Z,1.80
2022-11-24T15:02:53.784Z,1.80
2022-11-24T15:05:23.167Z,1.80
2022-11-24T15:08:00.950Z,1.80
2022-11-24T15:10:35.208Z,1.80
2022-11-24T15:13:06.426Z,1.80
2022-11-24T15:15:37.654Z,1.80
2022-11-24T15:18:07.746Z,1.80
2022-11-24T15:20:41.666Z,1.80
2022-11-24T15:23:23.843Z,1.70
2022-11-24T15:25:52.635Z,1.70
2022-11-24T15:28:24.818Z,1.70
2022-11-24T15:30:54.446Z,1.60
2022-11-24T15:33:24.494Z,1.60
2022-11-24T15:35:52.390Z,1.60
2022-11-24T15:38:20.474Z,1.70
2022-11-24T15:40:50.165Z,1.70
2022-11-24T15:43:30.458Z,1.70
2022-11-24T15:46:02.151Z,1.70
2022-11-24T15:48:31.890Z,1.70
2022-11-24T15:51:02.262Z,1.70
2022-11-24T15:53:33.691Z,1.70
2022-11-24T15:56:02.382Z,1.70
2022-11-24T15:58:30.462Z,1.70
2022-11-24T16:00:58.621Z,1.70
2022-11-24T16:06:23.801Z,1.70
2022-11-24T16:08:52.963Z,1.70
2022-11-24T16:11:20.862Z,1.70
2022-11-24T16:13:53.049Z,1.70
2022-11-24T16:16:22.271Z,1.70
2022-11-24T16:18:50.615Z,1.70
2022-11-24T16:21:19.889Z,1.70
2022-11-24T16:23:48.753Z,1.70
2022-11-24T16:26:16.768Z,1.60
2022-11-24T16:28:45.798Z,1.70
2022-11-24T16:31:15.824Z,1.60
2022-11-24T16:33:45.403Z,1.60
2022-11-24T16:36:13.679Z,1.60
2022-11-24T16:38:42.942Z,1.60
2022-11-24T16:41:11.065Z,1.60
2022-11-24T16:43:39.422Z,1.60
2022-11-24T16:46:19.474Z,1.60
2022-11-24T16:48:49.110Z,1.60
2022-11-24T16:51:18.563Z,1.60
2022-11-24T16:53:48.034Z,1.60
2022-11-24T16:56:16.517Z,1.60
2022-11-24T16:58:44.413Z,1.60
2022-11-24T17:01:14.316Z,1.60
2022-11-24T17:03:42.793Z,1.60
2022-11-24T17:06:13.009Z,1.60
2022-11-24T17:08:41.997Z,1.60
2022-11-24T17:11:13.075Z,1.60
2022-11-24T17:13:42.222Z,1.60
2022-11-24T17:16:12.510Z,1.60
2022-11-24T17:18:40.889Z,1.60
2022-11-24T17:21:12.670Z,1.70
2022-11-24T17:23:40.610Z,1.70
2022-11-24T17:26:12.233Z,1.70
2022-11-24T17:28:40.805Z,1.70
2022-11-24T17:31:09.721Z,1.70
2022-11-24T17:33:37.833Z,1.70
2022-11-24T17:36:07.146Z,1.60
2022-11-24T17:38:36.013Z,1.70
2022-11-24T17:41:05.066Z,1.70
2022-11-24T17:43:34.357Z,1.70
2022-11-24T17:46:04.395Z,1.70
2022-11-24T17:48:33.429Z,1.70
2022-11-24T17:51:02.593Z,1.70
2022-11-24T17:53:31.372Z,1.70
2022-11-24T17:56:00.772Z,1.70
2022-11-24T17:58:29.205Z,1.70
2022-11-24T18:00:58.748Z,1.70
2022-11-24T18:03:28.854Z,1.70
2022-11-24T18:05:56.923Z,1.70
2022-11-24T18:08:25.156Z,1.70
2022-11-24T18:10:53.032Z,1.80
2022-11-24T18:13:41.025Z,1.80
2022-11-24T18:16:12.596Z,1.80
2022-11-24T18:18:44.793Z,1.80
2022-11-24T18:21:16.388Z,1.70
2022-11-24T18:23:44.889Z,1.70
2022-11-24T18:26:15.076Z,1.70
2022-11-24T18:28:43.565Z,1.70
2022-11-24T18:31:14.873Z,1.70
2022-11-24T18:33:44.311Z,1.70
2022-11-24T18:36:14.855Z,1.70
2022-11-24T18:38:42.820Z,1.70
2022-11-24T18:41:12.883Z,1.70
2022-11-24T18:43:41.287Z,1.70
2022-11-24T18:46:13.077Z,1.70
2022-11-24T18:48:41.459Z,1.70
2022-11-24T18:51:14.343Z,1.70
2022-11-24T18:53:42.984Z,1.70
2022-11-24T18:56:14.307Z,1.70
2022-11-24T18:58:42.228Z,1.70
2022-11-24T19:01:13.016Z,1.70
2022-11-24T19:03:48.035Z,1.70
2022-11-24T19:06:18.793Z,1.70
2022-11-24T19:08:47.151Z,1.70
2022-11-24T19:11:19.959Z,1.70
2022-11-24T19:13:48.835Z,1.70
2022-11-24T19:16:19.331Z,1.70
2022-11-24T19:18:53.693Z,1.70
2022-11-24T19:21:22.723Z,1.80
2022-11-24T19:23:50.870Z,1.70
2022-11-24T19:26:19.498Z,1.70
2022-11-24T19:28:47.431Z,1.70
2022-11-24T19:31:18.267Z,1.70
2022-11-24T19:33:46.454Z,1.60
2022-11-24T19:36:16.275Z,1.60
2022-11-24T19:38:49.294Z,1.60
2022-11-24T19:41:19.323Z,1.60
2022-11-24T19:43:48.112Z,1.60
2022-11-24T19:46:19.456Z,1.60
2022-11-24T19:48:50.102Z,1.60
2022-11-24T19:51:19.940Z,1.70
2022-11-24T19:53:48.085Z,1.70
2022-11-24T19:56:18.833Z,1.60
2022-11-24T19:58:47.439Z,1.70
2022-11-24T20:01:18.153Z,1.70
2022-11-24T20:03:47.708Z,1.70
2022-11-24T20:06:16.370Z,1.70
2022-11-24T20:08:44.566Z,1.70
2022-11-24T20:11:14.593Z,1.70
2022-11-24T20:13:44.633Z,1.80
2022-11-24T20:16:14.574Z,1.80
2022-11-24T20:18:45.587Z,1.70
2022-11-24T20:21:15.233Z,1.80
2022-11-24T20:23:43.891Z,1.80
2022-11-24T20:26:14.364Z,1.70
2022-11-24T20:28:43.195Z,1.80
2022-11-24T20:31:13.188Z,1.80
2022-11-24T20:33:43.131Z,1.80
2022-11-24T20:36:12.719Z,1.80
2022-11-24T20:38:46.459Z,1.80
2022-11-24T20:41:16.403Z,1.80
2022-11-24T20:43:45.799Z,1.80
2022-11-24T20:46:16.186Z,1.80
2022-11-24T20:48:46.332Z,1.80
2022-11-24T20:51:15.530Z,1.80
2022-11-24T20:53:43.723Z,1.80
2022-11-24T20:56:13.893Z,1.80
2022-11-24T20:58:42.289Z,1.90
2022-11-24T21:01:12.201Z,1.80
2022-11-24T21:03:43.237Z,1.90
2022-11-24T21:06:13.657Z,1.90
2022-11-24T21:08:43.370Z,1.90
2022-11-24T21:11:14.092Z,1.90
2022-11-24T21:13:43.775Z,1.90
2022-11-24T21:16:16.640Z,1.90
2022-11-24T21:18:45.049Z,1.90
2022-11-24T21:21:15.343Z,1.90
2022-11-24T21:23:45.117Z,1.90
2022-11-24T21:26:16.918Z,1.90
2022-11-24T21:28:46.794Z,1.90
2022-11-24T21:31:16.507Z,1.90
2022-11-24T21:33:45.904Z,1.90
2022-11-24T21:36:17.718Z,1.90
2022-11-24T21:38:50.434Z,1.90
2022-11-24T21:41:18.422Z,1.90
2022-11-24T21:43:46.621Z,1.90
2022-11-24T21:46:15.352Z,1.90
2022-11-24T21:48:43.626Z,1.90
2022-11-24T21:51:14.103Z,1.90
2022-11-24T21:53:44.965Z,1.90
2022-11-24T21:56:14.377Z,1.90
2022-11-24T21:58:47.174Z,1.90
2022-11-24T22:01:16.331Z,1.80
2022-11-24T22:03:44.548Z,1.90
2022-11-24T22:06:12.854Z,1.90
2022-11-24T22:08:40.817Z,1.90
2022-11-24T22:11:13.478Z,1.80
2022-11-24T22:13:42.153Z,1.90
2022-11-24T22:16:11.830Z,1.90
2022-11-24T22:18:42.020Z,1.90
2022-11-24T22:21:13.407Z,1.90
2022-11-24T22:23:41.605Z,1.90
2022-11-24T22:26:14.505Z,1.90
2022-11-24T22:28:45.769Z,1.90
2022-11-24T22:31:15.815Z,1.90
2022-11-24T22:33:44.425Z,1.80
2022-11-24T22:36:13.047Z,1.80
2022-11-24T22:38:41.449Z,1.90
2022-11-24T22:41:12.835Z,1.90
2022-11-24T22:43:42.199Z,1.80
2022-11-24T22:46:11.983Z,1.90
2022-11-24T22:48:40.630Z,1.90
2022-11-24T22:51:10.640Z,1.90
2022-11-24T22:53:39.325Z,1.90
2022-11-24T22:56:09.460Z,1.90
2022-11-24T22:58:39.403Z,1.90
2022-11-24T23:01:08.923Z,1.90
2022-11-24T23:03:37.773Z,2.00
2022-11-24T23:06:11.040Z,2.00
2022-11-24T23:08:39.458Z,2.00
2022-11-24T23:11:09.135Z,2.00
2022-11-24T23:13:38.874Z,2.00
2022-11-24T23:16:09.783Z,1.90
2022-11-24T23:18:38.271Z,2.00
2022-11-24T23:21:07.844Z,1.90
2022-11-24T23:23:36.389Z,1.90
2022-11-24T23:26:06.817Z,1.90
2022-11-24T23:28:35.060Z,1.90
2022-11-24T23:31:05.892Z,2.00
2022-11-24T23:33:34.520Z,1.90
2022-11-24T23:36:03.905Z,1.90
2022-11-24T23:38:33.382Z,2.00
2022-11-24T23:41:04.440Z,2.00
2022-11-24T23:43:32.788Z,2.00
2022-11-24T23:46:06.034Z,2.00
2022-11-24T23:48:34.575Z,2.00
2022-11-24T23:51:06.843Z,2.00
2022-11-24T23:53:36.097Z,2.00
2022-11-24T23:56:04.247Z,2.00
2022-11-24T23:58:32.783Z,2.00
